Time;durP1;ratioP1;P1;durP2;ratioP2;P2;SDS_P1;SDS_P2;PMS_P1;PMS_P2;Temp;Humidity;BMP_temperature;BMP_pressure;BME280_temperature;BME280_humidity;BME280_pressure;Samples;Min_cycle;Max_cycle;Signal;HPM_P1;HPM_P2
2023/06/19 00:00:38;;;;;;;13.27;4.00;;;;;;;23.40;64.01;98757.38;6246290;23;20224;-87
2023/06/19 00:03:04;;;;;;;6.63;3.73;;;;;;;23.41;63.75;98754.50;6246426;23;20592;-86
2023/06/19 00:05:31;;;;;;;7.40;4.20;;;;;;;23.40;63.87;98752.81;6246483;23;20145;-86
2023/06/19 00:07:56;;;;;;;4.87;3.33;;;;;;;23.28;64.16;98754.16;6220346;23;20181;-87
2023/06/19 00:10:22;;;;;;;7.23;4.43;;;;;;;23.39;63.78;98751.16;6246357;23;20155;-85
2023/06/19 00:12:49;;;;;;;6.57;3.70;;;;;;;23.54;63.29;98748.63;6219839;23;20218;-85
2023/06/19 00:15:15;;;;;;;7.67;3.40;;;;;;;23.48;63.24;98760.03;6246751;23;20171;-85
2023/06/19 00:17:41;;;;;;;6.07;3.70;;;;;;;23.37;63.41;98755.88;6246353;23;20145;-86
2023/06/19 00:20:07;;;;;;;6.90;3.63;;;;;;;23.25;63.75;98751.81;6246469;23;20164;-85
2023/06/19 00:22:33;;;;;;;6.07;3.47;;;;;;;23.41;63.24;98749.16;6246467;23;20577;-86
2023/06/19 00:24:59;;;;;;;7.03;3.30;;;;;;;23.25;63.82;98754.50;6246306;23;20143;-85
2023/06/19 00:27:26;;;;;;;6.73;3.80;;;;;;;23.22;63.89;98749.50;6246311;23;20148;-85
2023/06/19 00:29:51;;;;;;;6.73;3.90;;;;;;;23.39;63.35;98744.97;6246895;23;20156;-85
2023/06/19 00:32:17;;;;;;;6.43;3.80;;;;;;;23.45;63.14;98750.50;6246404;23;20160;-85
2023/06/19 00:34:44;;;;;;;6.13;3.20;;;;;;;23.59;62.50;98752.44;6246363;23;20635;-85
2023/06/19 00:37:13;;;;;;;7.67;3.40;;;;;;;23.62;62.41;98740.56;6219768;23;20157;-85
2023/06/19 00:39:40;;;;;;;8.17;3.63;;;;;;;23.64;62.31;98747.41;6246288;23;20161;-85
2023/06/19 00:42:07;;;;;;;7.27;4.10;;;;;;;23.61;61.97;98753.09;6246566;23;20180;-85
2023/06/19 00:44:33;;;;;;;8.00;3.87;;;;;;;23.59;62.06;98757.78;6246474;23;20210;-86
2023/06/19 00:47:02;;;;;;;5.87;3.70;;;;;;;23.59;62.04;98754.28;6219595;23;20251;-86
2023/06/19 00:49:30;;;;;;;5.83;3.40;;;;;;;23.44;62.74;98759.50;6246404;23;20233;-86
2023/06/19 00:51:55;;;;;;;5.30;3.33;;;;;;;23.22;63.44;98762.84;6246121;23;20149;-85
2023/06/19 00:54:21;;;;;;;5.23;3.13;;;;;;;23.25;63.75;98770.53;6245832;23;20540;-85
2023/06/19 00:56:49;;;;;;;7.40;3.77;;;;;;;23.37;63.21;98763.03;6219644;23;20592;-85
2023/06/19 00:59:17;;;;;;;6.70;4.00;;;;;;;23.40;63.48;98763.53;6246380;23;20152;-86
2023/06/19 01:01:43;;;;;;;10.27;4.23;;;;;;;23.33;63.43;98757.16;6246259;23;20471;-85
2023/06/19 01:04:09;;;;;;;7.07;3.97;;;;;;;23.42;63.36;98761.53;6246034;23;20510;-85
2023/06/19 01:07:02;;;;;;;8.03;4.00;;;;;;;23.33;63.15;98765.19;6246659;23;20145;-86
2023/06/19 01:09:36;;;;;;;6.63;3.70;;;;;;;23.57;62.72;98759.81;6246011;23;20153;-85
2023/06/19 01:12:17;;;;;;;8.17;3.87;;;;;;;23.61;62.58;98761.13;6246279;23;20211;-86
2023/06/19 01:15:00;;;;;;;6.67;3.63;;;;;;;23.46;62.76;98762.84;6246067;23;20200;-85
2023/06/19 01:17:29;;;;;;;7.40;3.80;;;;;;;23.29;62.93;98755.84;6245887;23;20287;-85
2023/06/19 01:19:59;;;;;;;6.80;3.70;;;;;;;23.36;62.82;98753.31;6245971;23;20156;-85
2023/06/19 01:22:29;;;;;;;7.40;3.50;;;;;;;23.37;62.85;98753.19;6219320;23;20180;-87
2023/06/19 01:24:55;;;;;;;7.53;3.27;;;;;;;23.42;62.92;98763.38;6219373;23;20164;-86
2023/06/19 01:27:25;;;;;;;5.03;3.10;;;;;;;23.33;62.54;98759.84;6245864;23;20149;-86
2023/06/19 01:29:51;;;;;;;6.47;3.53;;;;;;;23.47;62.33;98767.19;6245642;23;20153;-86
2023/06/19 01:32:50;;;;;;;6.93;3.50;;;;;;;23.51;62.08;98762.31;6220327;23;20558;-86
2023/06/19 01:35:21;;;;;;;6.10;3.27;;;;;;;23.32;62.48;98776.91;6196499;23;20196;-86
2023/06/19 01:37:49;;;;;;;8.07;3.30;;;;;;;23.48;61.91;98765.38;6221481;23;20152;-86
2023/06/19 01:40:16;;;;;;;7.67;3.10;;;;;;;23.41;62.17;98764.38;6221376;23;20595;-86
2023/06/19 01:42:43;;;;;;;7.27;3.63;;;;;;;23.23;62.84;98769.88;6247918;23;20237;-86
2023/06/19 01:45:09;;;;;;;6.30;3.53;;;;;;;23.32;62.34;98762.69;6248219;23;20149;-86
2023/06/19 01:47:35;;;;;;;6.33;3.57;;;;;;;23.27;62.78;98766.69;6247902;23;20176;-86
2023/06/19 01:50:01;;;;;;;7.23;3.90;;;;;;;23.33;62.22;98762.50;6248541;23;20149;-85
2023/06/19 01:52:27;;;;;;;6.30;3.10;;;;;;;23.43;62.01;98757.84;6247754;23;20163;-85
2023/06/19 01:54:53;;;;;;;6.77;3.93;;;;;;;23.50;61.68;98764.19;6247765;23;20206;-85
2023/06/19 01:57:20;;;;;;;6.23;3.33;;;;;;;23.62;60.82;98756.63;6221366;23;20153;-85
2023/06/19 01:59:46;;;;;;;7.77;3.33;;;;;;;23.56;61.63;98762.66;6248268;23;20188;-85
2023/06/19 02:02:11;;;;;;;8.03;3.57;;;;;;;23.45;61.89;98761.19;6247719;23;20145;-87
2023/06/19 02:04:37;;;;;;;6.27;3.60;;;;;;;23.29;62.84;98755.00;6247702;23;20149;-86
2023/06/19 02:07:02;;;;;;;8.37;3.87;;;;;;;23.37;62.35;98757.69;6247630;23;20149;-87
2023/06/19 02:09:28;;;;;;;6.63;4.17;;;;;;;23.53;61.88;98769.19;6247936;23;20145;-85
2023/06/19 02:11:54;;;;;;;6.53;3.83;;;;;;;23.52;62.14;98769.34;6221028;23;20153;-85
2023/06/19 02:14:20;;;;;;;6.53;3.67;;;;;;;23.51;61.67;98767.69;6221036;23;20616;-86
2023/06/19 02:16:45;;;;;;;7.33;4.03;;;;;;;23.51;62.00;98776.53;6221000;23;20168;-86
2023/06/19 02:19:11;;;;;;;5.97;3.77;;;;;;;23.34;62.50;98766.03;6221677;23;20149;-85
2023/06/19 02:21:38;;;;;;;8.67;3.63;;;;;;;23.23;62.79;98775.22;6247419;23;20155;-86
2023/06/19 02:24:04;;;;;;;10.47;4.33;;;;;;;23.17;62.96;98782.09;6247369;23;20482;-85
2023/06/19 02:26:32;;;;;;;9.93;4.10;;;;;;;23.18;63.40;98777.59;6220713;23;20152;-87
2023/06/19 02:28:57;;;;;;;7.10;4.03;;;;;;;23.10;63.76;98774.91;6220743;23;20483;-86
2023/06/19 02:31:23;;;;;;;7.40;5.10;;;;;;;22.97;64.10;98778.09;6247443;23;20611;-87
2023/06/19 02:33:50;;;;;;;7.57;4.30;;;;;;;22.97;63.77;98787.94;6247265;23;20172;-86
2023/06/19 02:36:19;;;;;;;5.87;3.50;;;;;;;22.74;64.42;98792.28;6247401;23;20557;-86
2023/06/19 02:38:52;;;;;;;4.93;2.93;;;;;;;22.56;65.40;98785.22;6247354;23;20156;-85
2023/06/19 02:41:19;;;;;;;6.40;3.70;;;;;;;22.64;65.45;98790.59;6247354;23;20153;-85
2023/06/19 02:43:49;;;;;;;10.13;4.13;;;;;;;22.67;64.86;98797.44;6246825;23;20224;-87
2023/06/19 02:46:15;;;;;;;6.17;3.67;;;;;;;22.81;64.36;98799.47;6221537;23;20154;-86
2023/06/19 02:48:42;;;;;;;6.73;3.90;;;;;;;22.80;63.97;98797.78;6247310;23;20618;-85
2023/06/19 02:51:07;;;;;;;11.73;3.83;;;;;;;22.83;64.28;98802.81;6247738;23;20530;-85
2023/06/19 02:53:32;;;;;;;6.73;3.70;;;;;;;22.95;63.94;98806.00;6247103;23;20616;-85
2023/06/19 02:55:59;;;;;;;7.33;3.90;;;;;;;23.02;64.10;98812.34;6220878;23;20219;-85
2023/06/19 02:58:26;;;;;;;5.83;3.60;;;;;;;22.99;63.73;98810.00;6247099;23;20149;-85
2023/06/19 03:00:52;;;;;;;5.67;3.70;;;;;;;22.95;63.89;98806.00;6247501;23;20580;-86
2023/06/19 03:03:17;;;;;;;5.70;3.57;;;;;;;23.10;63.04;98804.31;6247131;23;20146;-86
2023/06/19 03:05:43;;;;;;;5.33;3.03;;;;;;;23.01;63.54;98805.31;6247232;23;20156;-85
2023/06/19 03:08:10;;;;;;;7.63;4.13;;;;;;;23.04;63.21;98804.97;6246957;23;20149;-85
2023/06/19 03:10:37;;;;;;;9.03;4.20;;;;;;;22.84;63.35;98806.31;6220576;23;20240;-85
2023/06/19 03:13:03;;;;;;;5.67;3.43;;;;;;;22.91;63.36;98799.31;6246851;23;20592;-86
2023/06/19 03:15:28;;;;;;;7.17;3.87;;;;;;;22.93;63.32;98795.47;6220531;23;20164;-85
2023/06/19 03:17:55;;;;;;;5.17;3.23;;;;;;;22.97;63.14;98798.66;6247330;23;20156;-85
2023/06/19 03:20:22;;;;;;;10.97;3.50;;;;;;;22.78;63.25;98796.28;6246860;23;20153;-85
2023/06/19 03:22:47;;;;;;;8.17;3.07;;;;;;;22.76;63.35;98796.47;6246984;23;20196;-85
2023/06/19 03:25:13;;;;;;;6.33;3.23;;;;;;;22.85;63.56;98797.31;6246984;23;20625;-85
2023/06/19 03:27:39;;;;;;;6.50;3.70;;;;;;;23.03;62.56;98792.63;6246798;23;20535;-86
2023/06/19 03:30:09;;;;;;;5.27;2.90;;;;;;;22.81;62.81;98787.94;6247514;23;20149;-85
2023/06/19 03:32:35;;;;;;;5.00;3.27;;;;;;;22.83;62.82;98792.13;6246691;23;20199;-85
2023/06/19 03:35:01;;;;;;;5.23;2.93;;;;;;;22.91;63.26;98791.28;6247170;23;20149;-85
2023/06/19 03:37:27;;;;;;;7.33;3.53;;;;;;;22.90;62.35;98784.28;6246789;23;20149;-85
2023/06/19 03:39:52;;;;;;;6.37;3.43;;;;;;;22.78;62.56;98785.59;6247385;23;20156;-85
2023/06/19 03:42:19;;;;;;;5.97;3.27;;;;;;;22.76;63.10;98784.94;6246712;23;20156;-85
2023/06/19 03:44:44;;;;;;;5.20;3.20;;;;;;;22.76;62.88;98790.28;6246738;23;20146;-85
2023/06/19 03:47:11;;;;;;;7.00;3.13;;;;;;;22.78;63.09;98793.63;6246577;23;20256;-85
2023/06/19 03:49:37;;;;;;;6.87;3.93;;;;;;;22.74;63.07;98793.13;6220225;23;20199;-85
2023/06/19 03:52:03;;;;;;;6.30;3.43;;;;;;;22.88;62.38;98795.13;6247319;23;20145;-85
2023/06/19 03:54:28;;;;;;;15.03;3.90;;;;;;;23.08;61.97;98801.00;6247158;23;20169;-87
2023/06/19 03:56:55;;;;;;;5.83;3.00;;;;;;;23.11;61.69;98801.47;6220184;23;20514;-86
2023/06/19 03:59:20;;;;;;;6.03;3.17;;;;;;;23.17;61.23;98805.31;6219983;23;20593;-85
2023/06/19 04:01:46;;;;;;;7.83;3.17;;;;;;;23.12;61.46;98810.34;6220011;23;20148;-86
2023/06/19 04:04:11;;;;;;;4.90;2.90;;;;;;;23.22;61.17;98803.81;6246899;23;20211;-85
2023/06/19 04:06:36;;;;;;;5.40;3.73;;;;;;;23.29;61.29;98811.16;6246500;23;20164;-85
2023/06/19 04:09:04;;;;;;;5.73;3.40;;;;;;;23.37;61.51;98816.53;6219998;23;20258;-85
2023/06/19 04:11:31;;;;;;;5.60;3.27;;;;;;;23.36;61.20;98821.03;6246442;23;20232;-85
2023/06/19 04:13:56;;;;;;;9.83;3.27;;;;;;;23.51;60.89;98816.69;6246339;23;20169;-86
2023/06/19 04:16:22;;;;;;;9.17;3.10;;;;;;;23.42;61.03;98815.03;6246065;23;20159;-85
2023/06/19 04:18:48;;;;;;;6.63;3.60;;;;;;;23.59;60.81;98807.78;6246390;23;20153;-86
2023/06/19 04:21:15;;;;;;;7.43;3.47;;;;;;;23.67;61.05;98813.97;6246276;23;20464;-85
2023/06/19 04:23:40;;;;;;;6.87;4.10;;;;;;;23.78;60.62;98810.94;6246100;23;20233;-85
2023/06/19 04:26:07;;;;;;;5.73;3.37;;;;;;;23.71;60.17;98811.81;6247033;23;20157;-86
2023/06/19 04:28:35;;;;;;;7.37;3.20;;;;;;;23.69;60.63;98819.13;6218841;23;20200;-87
2023/06/19 04:31:03;;;;;;;5.93;3.00;;;;;;;23.65;61.04;98818.66;6219568;23;20168;-86
2023/06/19 04:33:30;;;;;;;7.50;3.60;;;;;;;23.59;61.03;98819.34;6245874;23;20177;-86
2023/06/19 04:35:56;;;;;;;6.33;3.67;;;;;;;23.48;62.15;98825.03;6219686;23;20163;-85
2023/06/19 04:38:24;;;;;;;6.00;3.63;;;;;;;23.57;61.52;98826.72;6246810;23;20156;-85
2023/06/19 04:40:51;;;;;;;10.37;4.07;;;;;;;23.61;61.50;98825.34;6219494;23;20160;-86
2023/06/19 04:43:18;;;;;;;5.80;3.87;;;;;;;23.55;62.05;98826.06;6246138;23;20148;-86
2023/06/19 04:45:44;;;;;;;13.73;5.00;;;;;;;23.67;61.18;98821.16;6246230;23;20149;-86
2023/06/19 04:48:11;;;;;;;7.60;4.03;;;;;;;23.42;62.66;98831.09;6220076;23;20159;-85
2023/06/19 04:50:38;;;;;;;7.90;4.60;;;;;;;23.42;62.73;98832.91;6246105;23;20156;-85
2023/06/19 04:53:03;;;;;;;6.80;4.17;;;;;;;23.17;62.88;98832.06;6219787;23;20592;-85
2023/06/19 04:55:28;;;;;;;6.57;4.03;;;;;;;23.42;63.04;98823.06;6246106;23;20145;-85
2023/06/19 04:57:55;;;;;;;7.57;4.30;;;;;;;23.46;62.30;98823.53;6246046;23;20148;-87
2023/06/19 05:00:23;;;;;;;5.83;3.40;;;;;;;23.43;62.12;98827.38;6219371;23;20582;-86
2023/06/19 05:02:50;;;;;;;7.33;4.10;;;;;;;23.41;61.95;98829.41;6218174;23;20156;-85
2023/06/19 05:05:17;;;;;;;6.47;3.33;;;;;;;23.63;61.71;98831.38;6245875;23;20182;-85
2023/06/19 05:07:45;;;;;;;8.23;3.93;;;;;;;23.94;61.41;98820.75;6245691;23;20159;-85
2023/06/19 05:10:12;;;;;;;9.87;3.93;;;;;;;23.87;60.92;98821.63;6245972;23;20145;-86
2023/06/19 05:12:38;;;;;;;5.87;3.60;;;;;;;23.76;61.89;98821.00;6245801;23;20207;-85
2023/06/19 05:15:05;;;;;;;6.47;3.90;;;;;;;23.93;61.13;98824.44;6219467;23;20164;-88
2023/06/19 05:17:32;;;;;;;6.73;4.20;;;;;;;24.12;60.78;98818.72;6245767;23;20638;-88
2023/06/19 05:19:59;;;;;;;7.27;3.77;;;;;;;24.17;61.13;98812.81;6246191;23;20163;-89
2023/06/19 05:22:26;;;;;;;5.70;3.17;;;;;;;24.45;59.62;98824.72;6218955;23;20211;-88
2023/06/19 05:24:55;;;;;;;5.80;3.70;;;;;;;24.43;59.94;98822.25;6245874;23;20146;-87
2023/06/19 05:27:22;;;;;;;10.93;4.47;;;;;;;24.54;59.42;98826.38;6245800;23;20149;-88
2023/06/19 05:29:49;;;;;;;5.33;3.30;;;;;;;24.57;59.39;98828.69;6246146;23;20176;-89
2023/06/19 05:32:16;;;;;;;4.37;3.10;;;;;;;24.75;59.88;98823.06;6245679;23;20224;-89
2023/06/19 05:34:42;;;;;;;7.33;3.40;;;;;;;24.86;57.88;98823.50;6219652;23;20177;-88
2023/06/19 05:37:09;;;;;;;5.10;3.27;;;;;;;24.84;59.04;98825.50;6245983;23;20153;-89
2023/06/19 05:39:36;;;;;;;5.83;3.63;;;;;;;24.85;57.87;98826.34;6245936;23;20177;-89
2023/06/19 05:42:03;;;;;;;4.80;3.30;;;;;;;25.17;58.88;98822.59;6245743;23;20149;-88
2023/06/19 05:44:30;;;;;;;6.37;3.50;;;;;;;25.25;56.94;98827.91;6218914;23;20465;-92
2023/06/19 05:46:57;;;;;;;6.17;3.50;;;;;;;25.29;57.07;98830.03;6219269;23;20561;-92
2023/06/19 05:49:24;;;;;;;6.03;3.67;;;;;;;25.30;57.77;98830.88;6245912;23;20152;-87
2023/06/19 05:51:50;;;;;;;7.70;3.30;;;;;;;25.45;57.53;98831.72;6245655;23;20149;-88
2023/06/19 05:54:17;;;;;;;5.83;3.00;;;;;;;25.46;56.60;98833.44;6219114;23;20184;-88
2023/06/19 05:56:44;;;;;;;5.30;3.37;;;;;;;25.46;56.60;98836.97;6219296;23;20163;-88
2023/06/19 05:59:10;;;;;;;7.00;3.60;;;;;;;25.53;56.42;98829.00;6219195;23;20153;-87
2023/06/19 06:01:36;;;;;;;5.95;3.90;;;;;;;25.67;56.69;98838.94;6219119;23;20236;-88
2023/06/19 06:04:04;;;;;;;5.35;3.10;;;;;;;25.81;57.51;98837.28;6219416;23;20173;-87
2023/06/19 06:06:31;;;;;;;4.38;2.97;;;;;;;25.82;56.35;98838.94;6219506;23;20196;-87
2023/06/19 06:08:58;;;;;;;5.10;3.20;;;;;;;25.78;56.58;98830.44;6245501;23;20145;-90
2023/06/19 06:11:24;;;;;;;5.65;3.00;;;;;;;25.86;54.65;98827.66;6219221;23;20163;-88
2023/06/19 06:13:51;;;;;;;5.47;3.20;;;;;;;26.11;55.53;98834.41;6245269;23;20177;-88
2023/06/19 06:16:18;;;;;;;7.20;3.47;;;;;;;26.38;55.52;98832.94;6245550;23;20207;-88
2023/06/19 06:18:45;;;;;;;5.30;2.97;;;;;;;26.47;55.20;98836.31;6246112;23;20146;-88
2023/06/19 06:21:14;;;;;;;6.20;3.45;;;;;;;26.67;53.95;98843.63;6248176;23;20149;-89
2023/06/19 06:23:41;;;;;;;10.98;3.00;;;;;;;26.60;53.86;98841.84;6247497;23;20550;-87
2023/06/19 06:26:07;;;;;;;6.70;3.20;;;;;;;26.88;54.53;98845.53;6247787;23;20161;-88
2023/06/19 06:28:35;;;;;;;5.03;2.97;;;;;;;27.16;53.97;98848.28;6220901;23;20231;-89
2023/06/19 06:31:02;;;;;;;5.57;2.67;;;;;;;27.23;53.59;98841.94;6220784;23;20554;-88
2023/06/19 06:33:28;;;;;;;6.55;3.13;;;;;;;27.22;50.79;98834.91;6220848;23;20208;-88
2023/06/19 06:35:57;;;;;;;4.28;3.10;;;;;;;27.37;49.66;98846.41;6220523;23;20174;-90
2023/06/19 06:38:23;;;;;;;5.45;3.03;;;;;;;27.34;50.79;98840.56;6247554;23;20145;-88
2023/06/19 06:40:50;;;;;;;6.03;3.20;;;;;;;27.46;50.80;98839.06;6221712;23;20165;-89
2023/06/19 06:43:16;;;;;;;4.22;2.78;;;;;;;27.41;50.58;98845.00;6247922;23;20149;-89
2023/06/19 06:45:43;;;;;;;5.95;3.35;;;;;;;27.65;51.87;98842.91;6220806;23;20149;-89
2023/06/19 06:48:10;;;;;;;5.47;3.10;;;;;;;27.87;51.02;98847.22;6247132;23;20153;-89
2023/06/19 06:50:36;;;;;;;6.45;3.67;;;;;;;28.17;51.69;98837.88;6247086;23;20149;-89
2023/06/19 06:53:03;;;;;;;5.22;3.10;;;;;;;28.60;50.19;98842.00;6247097;23;20215;-89
2023/06/19 06:55:30;;;;;;;5.20;3.35;;;;;;;28.80;50.12;98849.38;6220706;23;20179;-90
2023/06/19 06:57:59;;;;;;;5.93;3.17;;;;;;;29.07;48.89;98842.97;6247148;23;20177;-90
2023/06/19 07:00:26;;;;;;;5.47;3.22;;;;;;;29.02;47.89;98845.47;6247136;23;20228;-88
2023/06/19 07:02:53;;;;;;;7.95;3.70;;;;;;;29.05;48.49;98847.75;6243848;23;20145;-90
2023/06/19 07:05:20;;;;;;;6.60;3.38;;;;;;;29.20;47.26;98849.25;6247050;23;20152;-88
2023/06/19 07:07:46;;;;;;;7.25;4.05;;;;;;;29.29;48.21;98849.91;6247079;23;20159;-89
2023/06/19 07:10:12;;;;;;;9.52;2.97;;;;;;;29.36;47.26;98852.59;6219473;23;20149;-89
2023/06/19 07:12:48;;;;;;;4.85;2.92;;;;;;;29.31;45.43;98847.81;6246109;23;20152;-89
2023/06/19 07:15:13;;;;;;;8.45;3.33;;;;;;;29.30;46.48;98846.16;6245946;23;20149;-89
2023/06/19 07:17:39;;;;;;;7.03;2.97;;;;;;;29.56;47.12;98846.16;6245742;23;20217;-89
2023/06/19 07:20:06;;;;;;;4.90;2.80;;;;;;;29.52;45.56;98850.31;6219743;23;20176;-88
2023/06/19 07:22:32;;;;;;;5.88;3.20;;;;;;;29.63;45.93;98852.41;6219346;23;20157;-89
2023/06/19 07:24:57;;;;;;;5.10;2.70;;;;;;;29.83;45.48;98861.34;6246465;23;20125;-89
2023/06/19 07:27:27;;;;;;;5.75;2.75;;;;;;;29.64;44.09;98854.03;6218907;23;20174;-89
2023/06/19 07:29:52;;;;;;;7.55;3.10;;;;;;;30.00;44.62;98850.09;6217964;23;20153;-89
2023/06/19 07:32:18;;;;;;;5.88;2.83;;;;;;;30.38;42.76;98851.88;6244261;23;20226;-89
2023/06/19 07:34:43;;;;;;;5.65;2.80;;;;;;;30.29;42.95;98852.28;6244016;23;20179;-91
2023/06/19 07:37:09;;;;;;;6.72;3.10;;;;;;;30.47;42.40;98849.75;6217727;23;20153;-88
2023/06/19 07:39:34;;;;;;;5.35;3.17;;;;;;;30.41;41.82;98856.84;6244398;23;20224;-92
2023/06/19 07:42:00;;;;;;;5.63;2.72;;;;;;;30.36;42.76;98853.13;6218420;23;20638;-90
2023/06/19 07:44:25;;;;;;;5.97;2.97;;;;;;;30.46;42.77;98856.19;6246501;23;20191;-89
2023/06/19 07:46:51;;;;;;;4.82;2.80;;;;;;;30.78;40.72;98855.22;6246683;23;20169;-91
2023/06/19 07:49:17;;;;;;;5.30;3.03;;;;;;;30.81;40.11;98860.22;6245848;23;20156;-89
2023/06/19 07:51:44;;;;;;;3.75;2.45;;;;;;;30.93;40.23;98866.63;6246710;23;20496;-89
2023/06/19 07:54:11;;;;;;;6.80;2.78;;;;;;;30.98;40.53;98866.81;6246335;23;20177;-90
2023/06/19 07:56:37;;;;;;;5.20;3.03;;;;;;;31.22;40.00;98862.47;6246334;23;20612;-89
2023/06/19 07:59:04;;;;;;;3.88;2.60;;;;;;;31.28;40.43;98858.06;6243266;23;20568;-89
2023/06/19 08:01:31;;;;;;;4.80;2.50;;;;;;;31.45;40.21;98867.28;6246384;23;20647;-89
2023/06/19 08:03:57;;;;;;;5.75;3.20;;;;;;;31.62;39.81;98868.44;6219679;23;20588;-89
2023/06/19 08:06:24;;;;;;;6.63;2.80;;;;;;;31.75;38.97;98860.19;6246364;23;20170;-91
2023/06/19 08:08:49;;;;;;;7.40;3.42;;;;;;;31.45;37.33;98864.59;6246480;23;20156;-90
2023/06/19 08:11:15;;;;;;;8.52;2.60;;;;;;;31.52;40.35;98868.13;6246405;23;20149;-90
2023/06/19 08:13:42;;;;;;;7.28;3.28;;;;;;;31.87;40.01;98863.84;6246197;23;20183;-90
2023/06/19 08:16:07;;;;;;;7.93;4.25;;;;;;;32.10;37.75;98866.75;6246263;23;20148;-90
2023/06/19 08:18:33;;;;;;;9.27;5.68;;;;;;;32.30;38.48;98865.72;6246365;23;20215;-90
2023/06/19 08:20:59;;;;;;;52.85;27.80;;;;;;;32.18;38.19;98866.47;6245821;23;20160;-91
2023/06/19 08:23:26;;;;;;;14.32;7.22;;;;;;;32.22;37.94;98880.41;6245948;23;20189;-89
2023/06/19 08:25:53;;;;;;;6.13;2.95;;;;;;;32.13;37.74;98863.59;6219659;23;20196;-90
2023/06/19 08:28:20;;;;;;;4.82;2.83;;;;;;;32.22;38.26;98877.69;6245996;23;20163;-90
2023/06/19 08:30:47;;;;;;;4.18;2.53;;;;;;;32.31;37.21;98876.34;6219512;23;20156;-90
2023/06/19 08:33:16;;;;;;;4.40;2.70;;;;;;;32.64;36.84;98881.41;6246026;23;20208;-90
2023/06/19 08:35:42;;;;;;;3.65;2.13;;;;;;;32.86;34.82;98877.16;6219921;23;20153;-90
2023/06/19 08:38:09;;;;;;;4.20;2.67;;;;;;;32.97;35.65;98880.97;6219646;23;20153;-91
2023/06/19 08:40:34;;;;;;;6.95;2.97;;;;;;;33.22;35.33;98879.78;6219755;23;20153;-91
2023/06/19 08:43:01;;;;;;;3.88;2.53;;;;;;;33.14;34.81;98877.41;6245987;23;20204;-90
2023/06/19 08:45:27;;;;;;;4.05;2.35;;;;;;;32.58;36.06;98885.84;6246055;23;20612;-91
2023/06/19 08:47:58;;;;;;;6.97;3.08;;;;;;;32.88;36.06;98875.03;6218163;23;20219;-90
2023/06/19 08:50:24;;;;;;;5.00;2.63;;;;;;;33.02;35.92;98878.41;6219225;23;20222;-89
2023/06/19 08:52:50;;;;;;;5.28;2.28;;;;;;;32.85;35.34;98878.19;6243890;23;20153;-91
2023/06/19 08:55:15;;;;;;;8.65;2.92;;;;;;;32.77;36.40;98881.22;6218210;23;20152;-90
2023/06/19 08:57:41;;;;;;;7.80;2.15;;;;;;;32.88;39.00;98880.47;6244145;23;20149;-90
2023/06/19 09:00:08;;;;;;;4.38;2.42;;;;;;;33.34;36.39;98877.94;6244789;23;20530;-90
2023/06/19 09:02:44;;;;;;;5.10;2.50;;;;;;;33.28;35.03;98884.28;6218266;23;20167;-92
2023/06/19 09:05:12;;;;;;;6.05;3.13;;;;;;;33.24;34.57;98876.84;6217686;23;20173;-90
2023/06/19 09:07:38;;;;;;;4.97;2.63;;;;;;;33.34;32.71;98877.09;6243948;23;20544;-90
2023/06/19 09:10:15;;;;;;;3.83;2.10;;;;;;;33.48;34.55;98873.13;6244098;23;20160;-90
2023/06/19 09:12:43;;;;;;;3.72;2.28;;;;;;;33.65;36.40;98865.94;6243666;23;20159;-89
2023/06/19 09:15:16;;;;;;;5.82;2.90;;;;;;;33.44;34.80;98868.38;6217890;23;20610;-89
2023/06/19 09:17:41;;;;;;;4.22;2.78;;;;;;;33.55;35.22;98867.56;6217249;23;20153;-89
2023/06/19 09:20:08;;;;;;;4.38;2.03;;;;;;;33.46;35.56;98864.38;6243663;23;20160;-89
2023/06/19 09:22:34;;;;;;;3.05;2.03;;;;;;;33.46;36.50;98867.09;6245240;23;20149;-90
2023/06/19 09:25:01;;;;;;;6.65;3.85;;;;;;;33.74;34.35;98867.25;6245767;23;20263;-91
2023/06/19 09:27:34;;;;;;;4.30;2.30;;;;;;;33.82;34.79;98868.81;6219483;23;20164;-90
2023/06/19 09:30:00;;;;;;;3.97;2.33;;;;;;;33.81;34.62;98867.13;6246175;23;20137;-90
2023/06/19 09:32:28;;;;;;;4.30;2.50;;;;;;;33.81;34.63;98867.13;6219337;23;20650;-90
2023/06/19 09:35:00;;;;;;;4.65;2.83;;;;;;;33.70;34.42;98859.81;6218714;23;20181;-90
2023/06/19 09:37:28;;;;;;;5.90;2.38;;;;;;;33.70;36.01;98867.97;6245896;23;20133;-90
2023/06/19 09:40:01;;;;;;;4.43;2.35;;;;;;;33.90;33.99;98863.00;6244532;23;20172;-90
2023/06/19 09:42:31;;;;;;;9.52;2.20;;;;;;;33.68;34.21;98864.66;6219664;23;20169;-90
2023/06/19 09:45:06;;;;;;;4.82;2.60;;;;;;;33.80;35.50;98854.63;6245704;23;20203;-90
2023/06/19 09:47:53;;;;;;;5.30;2.60;;;;;;;34.24;35.02;98853.19;6246071;23;20156;-89
2023/06/19 09:50:22;;;;;;;4.68;2.53;;;;;;;34.32;34.94;98850.94;6219219;23;20471;-90
2023/06/19 09:52:51;;;;;;;3.70;2.15;;;;;;;34.30;31.93;98852.25;6245981;23;20157;-90
2023/06/19 09:55:19;;;;;;;3.47;2.30;;;;;;;34.45;30.98;98841.66;6221390;23;20230;-90
2023/06/19 09:57:45;;;;;;;8.70;2.38;;;;;;;34.35;32.70;98852.34;6247742;23;20557;-90
2023/06/19 10:00:12;;;;;;;3.92;1.73;;;;;;;34.43;32.43;98841.09;6247728;23;20153;-90
2023/06/19 10:02:40;;;;;;;3.53;1.83;;;;;;;34.23;32.77;98838.75;6247626;23;20168;-90
2023/06/19 10:05:08;;;;;;;4.03;2.08;;;;;;;33.92;33.48;98839.94;6221228;23;20156;-88
2023/06/19 10:07:35;;;;;;;3.72;1.90;;;;;;;34.06;32.71;98837.84;6247918;23;20149;-89
2023/06/19 10:10:05;;;;;;;5.07;1.92;;;;;;;34.18;31.87;98840.53;6244562;23;20149;-89
2023/06/19 10:12:38;;;;;;;6.07;2.20;;;;;;;34.17;33.76;98825.28;6246284;23;20149;-89
2023/06/19 10:15:23;;;;;;;4.70;1.77;;;;;;;34.38;32.22;98828.19;6220545;23;20196;-91
2023/06/19 10:17:50;;;;;;;5.25;2.05;;;;;;;34.25;33.38;98822.19;6247256;23;20144;-88
2023/06/19 10:20:41;;;;;;;4.20;2.05;;;;;;;34.33;33.38;98816.38;6247840;23;20152;-88
2023/06/19 10:23:10;;;;;;;3.25;1.58;;;;;;;34.21;32.28;98823.72;6241117;23;20192;-88
2023/06/19 10:25:37;;;;;;;3.35;2.15;;;;;;;34.25;34.38;98811.31;6248166;23;20145;-88
2023/06/19 10:28:07;;;;;;;3.30;1.80;;;;;;;34.30;34.06;98804.09;6247390;23;20145;-89
2023/06/19 10:30:34;;;;;;;4.45;1.92;;;;;;;34.21;34.34;98801.97;6247379;23;20145;-88
2023/06/19 10:33:04;;;;;;;3.28;1.50;;;;;;;34.30;36.26;98812.25;6247667;23;20157;-88
2023/06/19 10:35:38;;;;;;;3.47;2.13;;;;;;;34.12;33.36;98809.66;6220886;23;20472;-88
2023/06/19 10:38:04;;;;;;;4.32;2.10;;;;;;;34.45;32.98;98803.56;6247764;23;20194;-89
2023/06/19 10:40:30;;;;;;;3.83;2.17;;;;;;;34.16;33.71;98805.41;6247179;23;20149;-88
2023/06/19 10:42:55;;;;;;;8.82;2.13;;;;;;;34.48;32.71;98797.63;6247682;23;20145;-88
2023/06/19 10:45:28;;;;;;;5.97;2.10;;;;;;;34.51;33.30;98800.69;6247917;23;20211;-89
2023/06/19 10:47:54;;;;;;;6.65;2.42;;;;;;;34.69;34.78;98796.16;6220736;23;20502;-89
2023/06/19 10:50:20;;;;;;;4.60;1.83;;;;;;;34.84;31.90;98797.25;6247290;23;20149;-88
2023/06/19 10:52:47;;;;;;;3.78;2.13;;;;;;;34.94;32.02;98804.78;6247432;23;20150;-88
2023/06/19 10:55:13;;;;;;;4.13;1.90;;;;;;;35.13;32.26;98801.63;6247537;23;20171;-88
2023/06/19 10:57:46;;;;;;;6.65;1.92;;;;;;;34.97;30.99;98805.13;6247153;23;20242;-89
2023/06/19 11:00:23;;;;;;;6.50;2.17;;;;;;;34.82;33.37;98798.59;6247510;23;20138;-88
2023/06/19 11:02:49;;;;;;;3.40;2.10;;;;;;;34.45;33.78;98793.50;6247512;23;20141;-89
2023/06/19 11:05:14;;;;;;;4.53;2.28;;;;;;;34.54;33.54;98792.03;6220159;23;20168;-89
2023/06/19 11:07:40;;;;;;;3.83;2.00;;;;;;;34.44;33.37;98793.72;6247080;23;20589;-89
2023/06/19 11:10:06;;;;;;;2.72;1.83;;;;;;;34.41;33.21;98800.47;6246928;23;20156;-88
2023/06/19 11:12:34;;;;;;;3.78;2.13;;;;;;;34.57;32.51;98797.03;6247008;23;20149;-90
2023/06/19 11:15:02;;;;;;;6.35;2.53;;;;;;;34.66;33.83;98802.91;6246729;23;20177;-89
2023/06/19 11:17:27;;;;;;;4.20;2.22;;;;;;;34.55;34.02;98803.75;6220519;23;20168;-89
2023/06/19 11:19:58;;;;;;;4.07;2.20;;;;;;;34.29;32.61;98794.25;6246889;23;20149;-88
2023/06/19 11:22:35;;;;;;;4.53;2.22;;;;;;;34.05;33.55;98800.78;6247154;23;20141;-89
2023/06/19 11:25:05;;;;;;;4.70;2.30;;;;;;;34.34;33.96;98796.25;6246954;23;20129;-89
2023/06/19 11:27:31;;;;;;;3.33;1.90;;;;;;;34.64;32.69;98794.16;6220465;23;20149;-88
2023/06/19 11:29:59;;;;;;;3.42;2.20;;;;;;;34.55;33.83;98799.16;6246700;23;20541;-89
2023/06/19 11:32:40;;;;;;;5.40;2.72;;;;;;;34.53;34.62;98782.22;6246689;23;20149;-88
2023/06/19 11:35:08;;;;;;;6.22;2.40;;;;;;;34.23;34.23;98788.94;6220290;23;20245;-88